sensor_id;sensor_type;location;lat;lon;timestamp;P1;durP1;ratioP1;P2;durP2;ratioP2
11305;SDS011;5708;50.660;6.778;2022-09-13T00:01:40;5.38;;;2.40;;
11305;SDS011;5708;50.660;6.778;2022-09-13T00:04:05;4.00;;;2.30;;
11305;SDS011;5708;50.660;6.778;2022-09-13T00:06:30;3.67;;;2.00;;
11305;SDS011;5708;50.660;6.778;2022-09-13T00:08:56;2.97;;;2.08;;
11305;SDS011;5708;50.660;6.778;2022-09-13T00:11:23;5.25;;;2.15;;
11305;SDS011;5708;50.660;6.778;2022-09-13T00:13:50;3.47;;;2.03;;
11305;SDS011;5708;50.660;6.778;2022-09-13T00:16:17;4.72;;;2.08;;
11305;SDS011;5708;50.660;6.778;2022-09-13T00:18:43;2.60;;;1.80;;
11305;SDS011;5708;50.660;6.778;2022-09-13T00:21:10;5.78;;;2.17;;
11305;SDS011;5708;50.660;6.778;2022-09-13T00:23:37;3.75;;;2.05;;
11305;SDS011;5708;50.660;6.778;2022-09-13T00:26:03;3.47;;;2.10;;
11305;SDS011;5708;50.660;6.778;2022-09-13T00:28:33;2.78;;;1.90;;
11305;SDS011;5708;50.660;6.778;2022-09-13T00:31:02;4.18;;;1.98;;
11305;SDS011;5708;50.660;6.778;2022-09-13T00:33:29;3.45;;;1.85;;
11305;SDS011;5708;50.660;6.778;2022-09-13T00:35:54;5.90;;;2.28;;
11305;SDS011;5708;50.660;6.778;2022-09-13T00:38:20;2.63;;;1.83;;
11305;SDS011;5708;50.660;6.778;2022-09-13T00:40:45;4.63;;;2.47;;
11305;SDS011;5708;50.660;6.778;2022-09-13T00:43:12;3.13;;;1.90;;
11305;SDS011;5708;50.660;6.778;2022-09-13T00:45:41;2.95;;;2.08;;
11305;SDS011;5708;50.660;6.778;2022-09-13T00:48:07;3.60;;;2.15;;
11305;SDS011;5708;50.660;6.778;2022-09-13T00:50:34;3.05;;;1.90;;
11305;SDS011;5708;50.660;6.778;2022-09-13T00:53:19;2.58;;;1.85;;
11305;SDS011;5708;50.660;6.778;2022-09-13T00:55:54;3.65;;;2.00;;
11305;SDS011;5708;50.660;6.778;2022-09-13T00:58:23;3.00;;;1.80;;
11305;SDS011;5708;50.660;6.778;2022-09-13T01:00:52;2.72;;;1.83;;
11305;SDS011;5708;50.660;6.778;2022-09-13T01:03:18;2.95;;;1.83;;
11305;SDS011;5708;50.660;6.778;2022-09-13T01:05:48;3.03;;;1.98;;
11305;SDS011;5708;50.660;6.778;2022-09-13T01:08:22;3.50;;;1.90;;
11305;SDS011;5708;50.660;6.778;2022-09-13T01:10:50;2.55;;;1.70;;
11305;SDS011;5708;50.660;6.778;2022-09-13T01:13:17;3.67;;;1.98;;
11305;SDS011;5708;50.660;6.778;2022-09-13T01:15:44;3.63;;;1.85;;
11305;SDS011;5708;50.660;6.778;2022-09-13T01:18:10;2.92;;;1.70;;
11305;SDS011;5708;50.660;6.778;2022-09-13T01:21:26;3.97;;;1.90;;
11305;SDS011;5708;50.660;6.778;2022-09-13T01:26:34;2.92;;;1.83;;
11305;SDS011;5708;50.660;6.778;2022-09-13T01:35:01;2.55;;;1.60;;
11305;SDS011;5708;50.660;6.778;2022-09-13T01:46:44;3.95;;;2.10;;
11305;SDS011;5708;50.660;6.778;2022-09-13T01:59:53;3.90;;;2.25;;
11305;SDS011;5708;50.660;6.778;2022-09-13T02:02:22;3.03;;;1.95;;
11305;SDS011;5708;50.660;6.778;2022-09-13T02:04:52;3.85;;;2.30;;
11305;SDS011;5708;50.660;6.778;2022-09-13T02:07:29;3.58;;;2.10;;
11305;SDS011;5708;50.660;6.778;2022-09-13T02:10:02;3.80;;;2.30;;
11305;SDS011;5708;50.660;6.778;2022-09-13T02:12:34;3.00;;;2.03;;
11305;SDS011;5708;50.660;6.778;2022-09-13T02:15:06;2.85;;;1.95;;
11305;SDS011;5708;50.660;6.778;2022-09-13T02:17:40;5.07;;;2.40;;
11305;SDS011;5708;50.660;6.778;2022-09-13T02:20:14;4.80;;;2.30;;
11305;SDS011;5708;50.660;6.778;2022-09-13T02:22:44;4.78;;;2.00;;
11305;SDS011;5708;50.660;6.778;2022-09-13T02:25:13;3.92;;;2.00;;
11305;SDS011;5708;50.660;6.778;2022-09-13T02:27:41;4.13;;;2.10;;
11305;SDS011;5708;50.660;6.778;2022-09-13T02:30:09;4.05;;;2.20;;
11305;SDS011;5708;50.660;6.778;2022-09-13T02:35:13;2.85;;;1.60;;
11305;SDS011;5708;50.660;6.778;2022-09-13T02:37:43;2.88;;;1.67;;
11305;SDS011;5708;50.660;6.778;2022-09-13T02:40:13;2.05;;;1.50;;
11305;SDS011;5708;50.660;6.778;2022-09-13T02:42:53;2.72;;;1.40;;
11305;SDS011;5708;50.660;6.778;2022-09-13T02:45:22;3.05;;;1.05;;
11305;SDS011;5708;50.660;6.778;2022-09-13T02:48:07;2.28;;;1.20;;
11305;SDS011;5708;50.660;6.778;2022-09-13T03:01:17;2.83;;;1.73;;
11305;SDS011;5708;50.660;6.778;2022-09-13T03:03:42;2.88;;;1.52;;
11305;SDS011;5708;50.660;6.778;2022-09-13T03:06:08;2.65;;;1.67;;
11305;SDS011;5708;50.660;6.778;2022-09-13T03:08:34;2.45;;;1.50;;
11305;SDS011;5708;50.660;6.778;2022-09-13T03:27:16;2.65;;;1.75;;
11305;SDS011;5708;50.660;6.778;2022-09-13T03:37:56;3.20;;;1.77;;
11305;SDS011;5708;50.660;6.778;2022-09-13T03:40:41;2.65;;;1.60;;
11305;SDS011;5708;50.660;6.778;2022-09-13T03:45:59;4.65;;;2.38;;
11305;SDS011;5708;50.660;6.778;2022-09-13T03:48:29;3.55;;;2.10;;
11305;SDS011;5708;50.660;6.778;2022-09-13T03:50:55;3.75;;;2.08;;
11305;SDS011;5708;50.660;6.778;2022-09-13T03:53:25;3.60;;;1.92;;
11305;SDS011;5708;50.660;6.778;2022-09-13T03:55:52;3.00;;;1.73;;
11305;SDS011;5708;50.660;6.778;2022-09-13T03:58:19;3.22;;;1.80;;
11305;SDS011;5708;50.660;6.778;2022-09-13T04:00:45;3.55;;;1.95;;
11305;SDS011;5708;50.660;6.778;2022-09-13T04:03:11;5.22;;;1.92;;
11305;SDS011;5708;50.660;6.778;2022-09-13T04:05:36;2.50;;;1.70;;
11305;SDS011;5708;50.660;6.778;2022-09-13T04:08:02;4.80;;;2.05;;
11305;SDS011;5708;50.660;6.778;2022-09-13T04:10:35;5.95;;;2.20;;
11305;SDS011;5708;50.660;6.778;2022-09-13T04:13:01;3.15;;;1.48;;
11305;SDS011;5708;50.660;6.778;2022-09-13T04:15:27;10.50;;;2.00;;
11305;SDS011;5708;50.660;6.778;2022-09-13T04:17:55;3.22;;;1.75;;
11305;SDS011;5708;50.660;6.778;2022-09-13T04:20:20;5.00;;;1.80;;
11305;SDS011;5708;50.660;6.778;2022-09-13T04:22:52;3.08;;;1.83;;
11305;SDS011;5708;50.660;6.778;2022-09-13T04:25:19;3.08;;;1.80;;
11305;SDS011;5708;50.660;6.778;2022-09-13T04:27:45;2.67;;;1.60;;
11305;SDS011;5708;50.660;6.778;2022-09-13T04:30:11;3.03;;;1.73;;
11305;SDS011;5708;50.660;6.778;2022-09-13T04:32:36;3.22;;;1.75;;
11305;SDS011;5708;50.660;6.778;2022-09-13T04:35:02;4.03;;;1.77;;
11305;SDS011;5708;50.660;6.778;2022-09-13T04:37:27;3.70;;;1.88;;
11305;SDS011;5708;50.660;6.778;2022-09-13T04:39:53;2.72;;;1.80;;
11305;SDS011;5708;50.660;6.778;2022-09-13T04:42:18;4.53;;;1.80;;
11305;SDS011;5708;50.660;6.778;2022-09-13T04:44:43;2.85;;;1.90;;
11305;SDS011;5708;50.660;6.778;2022-09-13T04:47:09;6.38;;;1.75;;
11305;SDS011;5708;50.660;6.778;2022-09-13T04:49:34;3.85;;;1.75;;
11305;SDS011;5708;50.660;6.778;2022-09-13T04:52:00;2.35;;;1.73;;
11305;SDS011;5708;50.660;6.778;2022-09-13T04:54:25;3.00;;;1.80;;
11305;SDS011;5708;50.660;6.778;2022-09-13T04:56:51;3.33;;;2.05;;
11305;SDS011;5708;50.660;6.778;2022-09-13T04:59:16;4.63;;;1.80;;
11305;SDS011;5708;50.660;6.778;2022-09-13T05:01:42;2.28;;;1.77;;
11305;SDS011;5708;50.660;6.778;2022-09-13T05:04:08;4.53;;;1.88;;
11305;SDS011;5708;50.660;6.778;2022-09-13T05:06:34;3.53;;;2.00;;
11305;SDS011;5708;50.660;6.778;2022-09-13T05:09:00;4.15;;;2.10;;
11305;SDS011;5708;50.660;6.778;2022-09-13T05:11:26;3.53;;;1.90;;
11305;SDS011;5708;50.660;6.778;2022-09-13T05:16:31;4.18;;;2.17;;
11305;SDS011;5708;50.660;6.778;2022-09-13T05:18:57;4.82;;;2.20;;
11305;SDS011;5708;50.660;6.778;2022-09-13T05:21:23;5.18;;;2.10;;
11305;SDS011;5708;50.660;6.778;2022-09-13T05:23:49;5.10;;;2.13;;
11305;SDS011;5708;50.660;6.778;2022-09-13T05:26:18;2.47;;;1.60;;
11305;SDS011;5708;50.660;6.778;2022-09-13T05:28:44;3.75;;;1.80;;
11305;SDS011;5708;50.660;6.778;2022-09-13T05:31:13;4.80;;;1.73;;
11305;SDS011;5708;50.660;6.778;2022-09-13T05:33:40;3.63;;;1.98;;
11305;SDS011;5708;50.660;6.778;2022-09-13T05:36:06;3.00;;;1.80;;
11305;SDS011;5708;50.660;6.778;2022-09-13T05:38:31;4.03;;;1.95;;
11305;SDS011;5708;50.660;6.778;2022-09-13T05:40:58;3.00;;;1.75;;
11305;SDS011;5708;50.660;6.778;2022-09-13T05:43:25;2.78;;;1.50;;
11305;SDS011;5708;50.660;6.778;2022-09-13T05:45:59;2.78;;;1.30;;
11305;SDS011;5708;50.660;6.778;2022-09-13T05:48:35;4.32;;;1.50;;
11305;SDS011;5708;50.660;6.778;2022-09-13T05:51:04;4.15;;;1.77;;
11305;SDS011;5708;50.660;6.778;2022-09-13T05:53:30;1.90;;;1.40;;
11305;SDS011;5708;50.660;6.778;2022-09-13T05:55:56;4.88;;;1.80;;
11305;SDS011;5708;50.660;6.778;2022-09-13T05:58:21;3.85;;;1.50;;
11305;SDS011;5708;50.660;6.778;2022-09-13T06:00:51;3.33;;;1.60;;
11305;SDS011;5708;50.660;6.778;2022-09-13T06:03:18;4.50;;;1.70;;
11305;SDS011;5708;50.660;6.778;2022-09-13T06:05:43;3.92;;;2.10;;
11305;SDS011;5708;50.660;6.778;2022-09-13T06:08:09;3.88;;;2.00;;
11305;SDS011;5708;50.660;6.778;2022-09-13T06:10:34;3.25;;;1.58;;
11305;SDS011;5708;50.660;6.778;2022-09-13T06:12:59;3.28;;;1.60;;
11305;SDS011;5708;50.660;6.778;2022-09-13T06:15:25;3.80;;;1.60;;
11305;SDS011;5708;50.660;6.778;2022-09-13T06:17:50;3.20;;;1.70;;
11305;SDS011;5708;50.660;6.778;2022-09-13T06:20:16;3.65;;;1.80;;
11305;SDS011;5708;50.660;6.778;2022-09-13T06:22:41;3.13;;;1.70;;
11305;SDS011;5708;50.660;6.778;2022-09-13T06:25:06;3.35;;;1.20;;
11305;SDS011;5708;50.660;6.778;2022-09-13T06:27:33;1.85;;;1.20;;
11305;SDS011;5708;50.660;6.778;2022-09-13T06:29:58;3.03;;;1.50;;
11305;SDS011;5708;50.660;6.778;2022-09-13T06:32:24;2.55;;;1.42;;
11305;SDS011;5708;50.660;6.778;2022-09-13T06:34:49;2.70;;;1.30;;
11305;SDS011;5708;50.660;6.778;2022-09-13T06:37:14;3.45;;;1.20;;
11305;SDS011;5708;50.660;6.778;2022-09-13T06:39:40;1.77;;;0.98;;
11305;SDS011;5708;50.660;6.778;2022-09-13T06:42:05;2.85;;;1.35;;
11305;SDS011;5708;50.660;6.778;2022-09-13T06:44:31;2.20;;;1.27;;
11305;SDS011;5708;50.660;6.778;2022-09-13T06:46:56;1.83;;;1.30;;
11305;SDS011;5708;50.660;6.778;2022-09-13T06:49:22;3.80;;;1.73;;
11305;SDS011;5708;50.660;6.778;2022-09-13T06:51:47;3.35;;;1.65;;
11305;SDS011;5708;50.660;6.778;2022-09-13T06:54:12;3.58;;;1.40;;
11305;SDS011;5708;50.660;6.778;2022-09-13T06:56:38;2.80;;;1.40;;
11305;SDS011;5708;50.660;6.778;2022-09-13T06:59:07;2.88;;;1.40;;
11305;SDS011;5708;50.660;6.778;2022-09-13T07:01:43;3.40;;;1.52;;
11305;SDS011;5708;50.660;6.778;2022-09-13T07:04:13;4.05;;;1.48;;
11305;SDS011;5708;50.660;6.778;2022-09-13T07:06:40;2.58;;;1.33;;
11305;SDS011;5708;50.660;6.778;2022-09-13T07:09:08;3.42;;;1.63;;
11305;SDS011;5708;50.660;6.778;2022-09-13T07:11:37;1.90;;;1.45;;
11305;SDS011;5708;50.660;6.778;2022-09-13T07:14:03;6.55;;;1.30;;
11305;SDS011;5708;50.660;6.778;2022-09-13T07:16:30;3.38;;;1.60;;
11305;SDS011;5708;50.660;6.778;2022-09-13T07:18:58;2.95;;;1.20;;
11305;SDS011;5708;50.660;6.778;2022-09-13T07:21:25;4.13;;;1.20;;
11305;SDS011;5708;50.660;6.778;2022-09-13T07:34:13;3.33;;;1.40;;
11305;SDS011;5708;50.660;6.778;2022-09-13T07:36:40;3.17;;;1.50;;
11305;SDS011;5708;50.660;6.778;2022-09-13T07:39:05;2.50;;;1.40;;
11305;SDS011;5708;50.660;6.778;2022-09-13T07:41:31;7.95;;;1.23;;
11305;SDS011;5708;50.660;6.778;2022-09-13T07:43:58;2.38;;;1.27;;
11305;SDS011;5708;50.660;6.778;2022-09-13T07:46:26;3.00;;;1.45;;
11305;SDS011;5708;50.660;6.778;2022-09-13T07:48:54;2.45;;;1.20;;
11305;SDS011;5708;50.660;6.778;2022-09-13T07:51:21;4.75;;;1.20;;
11305;SDS011;5708;50.660;6.778;2022-09-13T07:53:48;5.35;;;1.30;;
11305;SDS011;5708;50.660;6.778;2022-09-13T07:56:16;1.85;;;1.00;;
11305;SDS011;5708;50.660;6.778;2022-09-13T07:58:44;4.03;;;1.08;;
11305;SDS011;5708;50.660;6.778;2022-09-13T08:01:14;1.90;;;0.90;;
11305;SDS011;5708;50.660;6.778;2022-09-13T08:03:42;2.42;;;1.23;;
11305;SDS011;5708;50.660;6.778;2022-09-13T08:06:08;1.88;;;1.10;;
11305;SDS011;5708;50.660;6.778;2022-09-13T08:08:34;3.10;;;1.05;;
11305;SDS011;5708;50.660;6.778;2022-09-13T08:11:01;6.95;;;1.30;;
11305;SDS011;5708;50.660;6.778;2022-09-13T08:13:27;5.00;;;1.50;;
11305;SDS011;5708;50.660;6.778;2022-09-13T08:15:53;2.88;;;1.02;;
11305;SDS011;5708;50.660;6.778;2022-09-13T08:18:19;1.67;;;1.00;;
11305;SDS011;5708;50.660;6.778;2022-09-13T08:20:44;1.98;;;1.15;;
11305;SDS011;5708;50.660;6.778;2022-09-13T08:23:10;3.92;;;1.05;;
11305;SDS011;5708;50.660;6.778;2022-09-13T08:25:37;4.22;;;1.05;;
11305;SDS011;5708;50.660;6.778;2022-09-13T08:28:13;5.28;;;1.10;;
11305;SDS011;5708;50.660;6.778;2022-09-13T08:33:43;3.25;;;1.00;;
11305;SDS011;5708;50.660;6.778;2022-09-13T08:36:21;3.55;;;1.20;;
11305;SDS011;5708;50.660;6.778;2022-09-13T08:41:49;3.75;;;1.25;;
11305;SDS011;5708;50.660;6.778;2022-09-13T08:49:49;3.88;;;1.23;;
11305;SDS011;5708;50.660;6.778;2022-09-13T08:52:29;5.68;;;1.20;;
11305;SDS011;5708;50.660;6.778;2022-09-13T08:54:58;2.80;;;1.10;;
11305;SDS011;5708;50.660;6.778;2022-09-13T08:57:31;2.95;;;1.00;;
11305;SDS011;5708;50.660;6.778;2022-09-13T09:00:18;2.45;;;1.10;;
11305;SDS011;5708;50.660;6.778;2022-09-13T09:02:47;3.13;;;1.42;;
11305;SDS011;5708;50.660;6.778;2022-09-13T09:05:19;2.17;;;1.00;;
11305;SDS011;5708;50.660;6.778;2022-09-13T09:10:23;3.20;;;1.05;;
11305;SDS011;5708;50.660;6.778;2022-09-13T09:12:52;2.15;;;1.10;;
11305;SDS011;5708;50.660;6.778;2022-09-13T09:15:27;5.78;;;1.30;;
11305;SDS011;5708;50.660;6.778;2022-09-13T09:18:05;3.00;;;1.40;;
11305;SDS011;5708;50.660;6.778;2022-09-13T09:20:36;3.92;;;1.20;;
11305;SDS011;5708;50.660;6.778;2022-09-13T09:23:06;2.30;;;1.10;;
11305;SDS011;5708;50.660;6.778;2022-09-13T09:25:36;3.67;;;1.30;;
11305;SDS011;5708;50.660;6.778;2022-09-13T09:28:05;2.83;;;1.27;;
11305;SDS011;5708;50.660;6.778;2022-09-13T09:30:40;3.03;;;1.23;;
11305;SDS011;5708;50.660;6.778;2022-09-13T09:33:15;8.20;;;1.48;;
11305;SDS011;5708;50.660;6.778;2022-09-13T09:35:50;3.42;;;1.10;;
11305;SDS011;5708;50.660;6.778;2022-09-13T09:40:58;3.72;;;1.30;;
11305;SDS011;5708;50.660;6.778;2022-09-13T09:43:29;2.53;;;1.10;;
11305;SDS011;5708;50.660;6.778;2022-09-13T09:46:03;2.53;;;1.17;;
11305;SDS011;5708;50.660;6.778;2022-09-13T09:48:35;2.03;;;1.23;;
11305;SDS011;5708;50.660;6.778;2022-09-13T09:51:04;2.35;;;1.30;;
11305;SDS011;5708;50.660;6.778;2022-09-13T09:53:33;2.65;;;1.40;;
11305;SDS011;5708;50.660;6.778;2022-09-13T09:56:19;2.10;;;1.17;;
11305;SDS011;5708;50.660;6.778;2022-09-13T09:58:49;2.78;;;1.08;;
11305;SDS011;5708;50.660;6.778;2022-09-13T10:03:41;2.95;;;1.50;;
11305;SDS011;5708;50.660;6.778;2022-09-13T10:06:19;3.28;;;1.17;;
11305;SDS011;5708;50.660;6.778;2022-09-13T10:08:57;3.45;;;1.17;;
11305;SDS011;5708;50.660;6.778;2022-09-13T10:11:24;2.83;;;1.30;;
11305;SDS011;5708;50.660;6.778;2022-09-13T10:14:02;5.40;;;1.23;;
11305;SDS011;5708;50.660;6.778;2022-09-13T10:16:28;3.75;;;1.40;;
11305;SDS011;5708;50.660;6.778;2022-09-13T10:19:02;3.28;;;1.20;;
11305;SDS011;5708;50.660;6.778;2022-09-13T10:21:44;3.17;;;1.02;;
11305;SDS011;5708;50.660;6.778;2022-09-13T10:24:24;2.75;;;1.13;;
11305;SDS011;5708;50.660;6.778;2022-09-13T10:26:49;2.72;;;0.93;;
11305;SDS011;5708;50.660;6.778;2022-09-13T10:29:15;1.55;;;0.98;;
11305;SDS011;5708;50.660;6.778;2022-09-13T10:31:47;5.22;;;1.00;;
11305;SDS011;5708;50.660;6.778;2022-09-13T10:34:19;4.65;;;1.08;;
11305;SDS011;5708;50.660;6.778;2022-09-13T10:39:25;5.53;;;1.27;;
11305;SDS011;5708;50.660;6.778;2022-09-13T10:44:33;4.00;;;1.10;;
11305;SDS011;5708;50.660;6.778;2022-09-13T10:47:06;4.93;;;1.33;;
11305;SDS011;5708;50.660;6.778;2022-09-13T10:49:44;3.17;;;1.38;;
11305;SDS011;5708;50.660;6.778;2022-09-13T10:57:48;3.87;;;1.43;;
11305;SDS011;5708;50.660;6.778;2022-09-13T11:00:15;2.33;;;1.08;;
11305;SDS011;5708;50.660;6.778;2022-09-13T11:05:13;2.97;;;1.40;;
11305;SDS011;5708;50.660;6.778;2022-09-13T11:21:15;4.20;;;1.40;;
11305;SDS011;5708;50.660;6.778;2022-09-13T11:29:16;4.40;;;1.35;;
11305;SDS011;5708;50.660;6.778;2022-09-13T11:31:58;3.30;;;1.40;;
11305;SDS011;5708;50.660;6.778;2022-09-13T11:34:28;2.70;;;1.05;;
11305;SDS011;5708;50.660;6.778;2022-09-13T11:39:31;6.07;;;1.45;;
11305;SDS011;5708;50.660;6.778;2022-09-13T11:47:33;3.70;;;1.40;;
11305;SDS011;5708;50.660;6.778;2022-09-13T11:53:21;3.45;;;1.30;;
11305;SDS011;5708;50.660;6.778;2022-09-13T11:56:10;3.85;;;1.40;;
11305;SDS011;5708;50.660;6.778;2022-09-13T11:58:44;5.65;;;1.90;;
11305;SDS011;5708;50.660;6.778;2022-09-13T12:01:15;3.78;;;1.50;;
11305;SDS011;5708;50.660;6.778;2022-09-13T12:03:48;6.85;;;1.55;;
11305;SDS011;5708;50.660;6.778;2022-09-13T12:06:22;3.42;;;1.50;;
11305;SDS011;5708;50.660;6.778;2022-09-13T12:08:50;5.13;;;1.73;;
11305;SDS011;5708;50.660;6.778;2022-09-13T12:11:41;4.47;;;1.42;;
11305;SDS011;5708;50.660;6.778;2022-09-13T12:14:10;3.78;;;1.50;;
11305;SDS011;5708;50.660;6.778;2022-09-13T12:16:42;4.43;;;1.60;;
11305;SDS011;5708;50.660;6.778;2022-09-13T12:19:23;3.53;;;1.35;;
11305;SDS011;5708;50.660;6.778;2022-09-13T12:21:51;3.67;;;1.55;;
11305;SDS011;5708;50.660;6.778;2022-09-13T12:26:53;6.15;;;1.67;;
11305;SDS011;5708;50.660;6.778;2022-09-13T12:29:25;2.88;;;1.38;;
11305;SDS011;5708;50.660;6.778;2022-09-13T12:31:55;3.17;;;1.42;;
11305;SDS011;5708;50.660;6.778;2022-09-13T12:34:35;5.93;;;1.80;;
11305;SDS011;5708;50.660;6.778;2022-09-13T12:49:27;3.50;;;1.17;;
11305;SDS011;5708;50.660;6.778;2022-09-13T12:54:32;4.40;;;1.40;;
11305;SDS011;5708;50.660;6.778;2022-09-13T12:57:27;2.05;;;1.30;;
11305;SDS011;5708;50.660;6.778;2022-09-13T13:00:07;3.45;;;1.40;;
11305;SDS011;5708;50.660;6.778;2022-09-13T13:08:23;6.30;;;1.48;;
11305;SDS011;5708;50.660;6.778;2022-09-13T13:10:58;5.82;;;1.50;;
11305;SDS011;5708;50.660;6.778;2022-09-13T13:13:32;4.13;;;1.50;;
11305;SDS011;5708;50.660;6.778;2022-09-13T13:16:01;3.35;;;1.20;;
11305;SDS011;5708;50.660;6.778;2022-09-13T13:26:01;7.25;;;1.33;;
11305;SDS011;5708;50.660;6.778;2022-09-13T13:36:22;3.55;;;1.20;;
11305;SDS011;5708;50.660;6.778;2022-09-13T13:38:49;6.03;;;1.20;;
11305;SDS011;5708;50.660;6.778;2022-09-13T13:41:35;5.07;;;1.58;;
11305;SDS011;5708;50.660;6.778;2022-09-13T13:46:41;3.97;;;1.20;;
11305;SDS011;5708;50.660;6.778;2022-09-13T13:59:55;4.20;;;1.17;;
11305;SDS011;5708;50.660;6.778;2022-09-13T14:02:43;4.60;;;1.45;;
11305;SDS011;5708;50.660;6.778;2022-09-13T14:08:00;2.67;;;1.30;;
11305;SDS011;5708;50.660;6.778;2022-09-13T14:16:17;4.15;;;1.25;;
11305;SDS011;5708;50.660;6.778;2022-09-13T14:21:31;3.47;;;1.77;;
11305;SDS011;5708;50.660;6.778;2022-09-13T14:26:50;3.88;;;1.38;;
11305;SDS011;5708;50.660;6.778;2022-09-13T14:29:17;4.10;;;1.38;;
11305;SDS011;5708;50.660;6.778;2022-09-13T14:31:47;3.88;;;1.17;;
11305;SDS011;5708;50.660;6.778;2022-09-13T14:34:26;4.38;;;1.30;;
11305;SDS011;5708;50.660;6.778;2022-09-13T14:36:56;2.63;;;1.40;;
11305;SDS011;5708;50.660;6.778;2022-09-13T14:39:23;3.08;;;1.02;;
11305;SDS011;5708;50.660;6.778;2022-09-13T14:41:56;6.32;;;1.60;;
11305;SDS011;5708;50.660;6.778;2022-09-13T14:47:24;7.18;;;1.60;;
11305;SDS011;5708;50.660;6.778;2022-09-13T14:50:07;3.72;;;1.35;;
11305;SDS011;5708;50.660;6.778;2022-09-13T14:52:45;5.88;;;2.15;;
11305;SDS011;5708;50.660;6.778;2022-09-13T14:55:15;3.20;;;1.80;;
11305;SDS011;5708;50.660;6.778;2022-09-13T14:57:45;6.00;;;1.92;;
11305;SDS011;5708;50.660;6.778;2022-09-13T15:00:21;6.22;;;3.28;;
11305;SDS011;5708;50.660;6.778;2022-09-13T15:05:21;10.70;;;3.33;;
11305;SDS011;5708;50.660;6.778;2022-09-13T15:07:57;5.03;;;1.92;;
11305;SDS011;5708;50.660;6.778;2022-09-13T15:12:50;4.22;;;1.67;;
11305;SDS011;5708;50.660;6.778;2022-09-13T15:17:56;3.30;;;1.70;;
11305;SDS011;5708;50.660;6.778;2022-09-13T15:23:38;2.83;;;1.60;;
11305;SDS011;5708;50.660;6.778;2022-09-13T15:26:08;3.15;;;1.58;;
11305;SDS011;5708;50.660;6.778;2022-09-13T15:28:58;5.75;;;2.00;;
11305;SDS011;5708;50.660;6.778;2022-09-13T15:31:31;2.58;;;1.35;;
11305;SDS011;5708;50.660;6.778;2022-09-13T15:36:42;5.13;;;1.50;;
11305;SDS011;5708;50.660;6.778;2022-09-13T15:42:54;3.15;;;1.40;;
11305;SDS011;5708;50.660;6.778;2022-09-13T15:45:24;1.80;;;1.05;;
11305;SDS011;5708;50.660;6.778;2022-09-13T15:47:50;2.28;;;1.20;;
11305;SDS011;5708;50.660;6.778;2022-09-13T15:50:26;5.60;;;1.30;;
11305;SDS011;5708;50.660;6.778;2022-09-13T15:52:55;5.18;;;1.60;;
11305;SDS011;5708;50.660;6.778;2022-09-13T15:55:21;2.72;;;1.40;;
11305;SDS011;5708;50.660;6.778;2022-09-13T15:57:47;3.53;;;1.40;;
11305;SDS011;5708;50.660;6.778;2022-09-13T16:00:17;3.65;;;1.63;;
11305;SDS011;5708;50.660;6.778;2022-09-13T16:02:44;6.10;;;1.67;;
11305;SDS011;5708;50.660;6.778;2022-09-13T16:05:10;3.33;;;1.80;;
11305;SDS011;5708;50.660;6.778;2022-09-13T16:07:36;5.60;;;1.60;;
11305;SDS011;5708;50.660;6.778;2022-09-13T16:10:02;4.28;;;1.30;;
11305;SDS011;5708;50.660;6.778;2022-09-13T16:12:28;4.13;;;1.42;;
11305;SDS011;5708;50.660;6.778;2022-09-13T16:14:56;5.40;;;1.40;;
11305;SDS011;5708;50.660;6.778;2022-09-13T16:17:27;6.63;;;1.52;;
11305;SDS011;5708;50.660;6.778;2022-09-13T16:23:14;6.72;;;1.67;;
11305;SDS011;5708;50.660;6.778;2022-09-13T16:25:42;5.00;;;2.33;;
11305;SDS011;5708;50.660;6.778;2022-09-13T16:28:18;5.85;;;1.80;;
11305;SDS011;5708;50.660;6.778;2022-09-13T16:30:45;5.00;;;2.00;;
11305;SDS011;5708;50.660;6.778;2022-09-13T16:33:11;4.45;;;1.90;;
11305;SDS011;5708;50.660;6.778;2022-09-13T16:35:44;6.63;;;2.15;;
11305;SDS011;5708;50.660;6.778;2022-09-13T16:38:10;5.80;;;1.85;;
11305;SDS011;5708;50.660;6.778;2022-09-13T16:40:37;7.10;;;2.15;;
11305;SDS011;5708;50.660;6.778;2022-09-13T16:43:10;7.93;;;2.22;;
11305;SDS011;5708;50.660;6.778;2022-09-13T16:45:37;5.05;;;2.20;;
11305;SDS011;5708;50.660;6.778;2022-09-13T16:48:11;5.50;;;2.20;;
11305;SDS011;5708;50.660;6.778;2022-09-13T16:56:35;4.70;;;2.25;;
11305;SDS011;5708;50.660;6.778;2022-09-13T16:59:12;5.50;;;2.30;;
11305;SDS011;5708;50.660;6.778;2022-09-13T17:01:38;5.88;;;2.28;;
11305;SDS011;5708;50.660;6.778;2022-09-13T17:04:07;5.57;;;1.98;;
11305;SDS011;5708;50.660;6.778;2022-09-13T17:06:44;5.38;;;2.50;;
11305;SDS011;5708;50.660;6.778;2022-09-13T17:09:14;4.90;;;2.10;;
11305;SDS011;5708;50.660;6.778;2022-09-13T17:11:40;8.32;;;2.40;;
11305;SDS011;5708;50.660;6.778;2022-09-13T17:14:10;5.50;;;2.28;;
11305;SDS011;5708;50.660;6.778;2022-09-13T17:16:38;4.25;;;2.50;;
11305;SDS011;5708;50.660;6.778;2022-09-13T17:19:28;7.00;;;2.60;;
11305;SDS011;5708;50.660;6.778;2022-09-13T17:21:57;3.83;;;2.45;;
11305;SDS011;5708;50.660;6.778;2022-09-13T17:24:26;4.38;;;2.47;;
11305;SDS011;5708;50.660;6.778;2022-09-13T17:26:52;6.38;;;2.92;;
11305;SDS011;5708;50.660;6.778;2022-09-13T17:29:20;4.78;;;2.58;;
11305;SDS011;5708;50.660;6.778;2022-09-13T17:31:46;5.93;;;2.72;;
11305;SDS011;5708;50.660;6.778;2022-09-13T17:34:11;5.82;;;2.38;;
11305;SDS011;5708;50.660;6.778;2022-09-13T17:36:37;4.85;;;2.60;;
11305;SDS011;5708;50.660;6.778;2022-09-13T17:39:04;5.75;;;2.90;;
11305;SDS011;5708;50.660;6.778;2022-09-13T17:41:29;8.20;;;3.78;;
11305;SDS011;5708;50.660;6.778;2022-09-13T17:43:55;4.53;;;2.75;;
11305;SDS011;5708;50.660;6.778;2022-09-13T17:46:21;5.55;;;2.97;;
11305;SDS011;5708;50.660;6.778;2022-09-13T17:48:49;5.90;;;2.38;;
11305;SDS011;5708;50.660;6.778;2022-09-13T17:51:17;5.57;;;2.80;;
11305;SDS011;5708;50.660;6.778;2022-09-13T17:53:48;5.80;;;2.80;;
11305;SDS011;5708;50.660;6.778;2022-09-13T17:56:15;6.97;;;3.13;;
11305;SDS011;5708;50.660;6.778;2022-09-13T17:58:42;7.72;;;2.80;;
11305;SDS011;5708;50.660;6.778;2022-09-13T18:01:08;6.03;;;3.00;;
11305;SDS011;5708;50.660;6.778;2022-09-13T18:03:34;7.07;;;2.83;;
11305;SDS011;5708;50.660;6.778;2022-09-13T18:06:00;7.95;;;2.80;;
11305;SDS011;5708;50.660;6.778;2022-09-13T18:08:27;7.78;;;2.85;;
11305;SDS011;5708;50.660;6.778;2022-09-13T18:10:53;6.63;;;2.72;;
11305;SDS011;5708;50.660;6.778;2022-09-13T18:13:19;4.65;;;2.08;;
11305;SDS011;5708;50.660;6.778;2022-09-13T18:15:45;3.53;;;1.90;;
11305;SDS011;5708;50.660;6.778;2022-09-13T18:18:20;4.72;;;1.88;;
11305;SDS011;5708;50.660;6.778;2022-09-13T18:20:45;5.40;;;2.08;;
11305;SDS011;5708;50.660;6.778;2022-09-13T18:23:11;4.13;;;2.10;;
11305;SDS011;5708;50.660;6.778;2022-09-13T18:25:36;3.28;;;1.90;;
11305;SDS011;5708;50.660;6.778;2022-09-13T18:28:02;4.30;;;2.30;;
11305;SDS011;5708;50.660;6.778;2022-09-13T18:30:27;4.72;;;2.13;;
11305;SDS011;5708;50.660;6.778;2022-09-13T18:32:53;5.93;;;2.47;;
11305;SDS011;5708;50.660;6.778;2022-09-13T18:35:18;5.80;;;2.42;;
11305;SDS011;5708;50.660;6.778;2022-09-13T18:37:43;4.00;;;2.35;;
11305;SDS011;5708;50.660;6.778;2022-09-13T18:40:09;4.63;;;2.55;;
11305;SDS011;5708;50.660;6.778;2022-09-13T18:42:37;5.85;;;2.58;;
11305;SDS011;5708;50.660;6.778;2022-09-13T18:45:03;5.03;;;2.60;;
11305;SDS011;5708;50.660;6.778;2022-09-13T18:47:29;5.68;;;2.70;;
11305;SDS011;5708;50.660;6.778;2022-09-13T18:49:55;5.70;;;2.80;;
11305;SDS011;5708;50.660;6.778;2022-09-13T18:52:20;8.40;;;2.70;;
11305;SDS011;5708;50.660;6.778;2022-09-13T18:54:45;6.00;;;2.88;;
11305;SDS011;5708;50.660;6.778;2022-09-13T18:57:11;6.95;;;2.80;;
11305;SDS011;5708;50.660;6.778;2022-09-13T18:59:36;8.70;;;2.92;;
11305;SDS011;5708;50.660;6.778;2022-09-13T19:02:01;8.45;;;3.40;;
11305;SDS011;5708;50.660;6.778;2022-09-13T19:04:27;7.70;;;3.40;;
11305;SDS011;5708;50.660;6.778;2022-09-13T19:06:53;7.47;;;2.72;;
11305;SDS011;5708;50.660;6.778;2022-09-13T19:09:22;4.38;;;2.20;;
11305;SDS011;5708;50.660;6.778;2022-09-13T19:11:49;6.45;;;2.80;;
11305;SDS011;5708;50.660;6.778;2022-09-13T19:14:22;4.53;;;2.30;;